sensor_id;sensor_type;location;lat;lon;timestamp;P1;durP1;ratioP1;P2;durP2;ratioP2
9270;SDS011;4673;53.458;9.940;2023-02-15T00:02:46;29.00;;;28.50;;
9270;SDS011;4673;53.458;9.940;2023-02-15T00:05:12;28.67;;;28.37;;
9270;SDS011;4673;53.458;9.940;2023-02-15T00:07:38;30.50;;;30.00;;
9270;SDS011;4673;53.458;9.940;2023-02-15T00:10:03;29.03;;;28.73;;
9270;SDS011;4673;53.458;9.940;2023-02-15T00:12:30;27.53;;;27.23;;
9270;SDS011;4673;53.458;9.940;2023-02-15T00:14:55;30.67;;;30.17;;
9270;SDS011;4673;53.458;9.940;2023-02-15T00:17:21;29.33;;;28.93;;
9270;SDS011;4673;53.458;9.940;2023-02-15T00:19:47;33.33;;;32.83;;
9270;SDS011;4673;53.458;9.940;2023-02-15T00:22:13;31.63;;;31.13;;
9270;SDS011;4673;53.458;9.940;2023-02-15T00:24:38;28.17;;;27.87;;
9270;SDS011;4673;53.458;9.940;2023-02-15T00:27:04;29.70;;;29.40;;
9270;SDS011;4673;53.458;9.940;2023-02-15T00:29:29;30.97;;;30.57;;
9270;SDS011;4673;53.458;9.940;2023-02-15T00:31:55;30.27;;;29.73;;
9270;SDS011;4673;53.458;9.940;2023-02-15T00:34:22;29.57;;;29.07;;
9270;SDS011;4673;53.458;9.940;2023-02-15T00:36:49;27.93;;;27.63;;
9270;SDS011;4673;53.458;9.940;2023-02-15T00:39:16;30.17;;;29.87;;
9270;SDS011;4673;53.458;9.940;2023-02-15T00:41:43;29.73;;;29.33;;
9270;SDS011;4673;53.458;9.940;2023-02-15T00:44:10;30.10;;;29.60;;
9270;SDS011;4673;53.458;9.940;2023-02-15T00:46:36;35.57;;;34.87;;
9270;SDS011;4673;53.458;9.940;2023-02-15T00:49:02;30.23;;;29.83;;
9270;SDS011;4673;53.458;9.940;2023-02-15T00:51:28;31.57;;;31.17;;
9270;SDS011;4673;53.458;9.940;2023-02-15T00:53:54;30.03;;;29.63;;
9270;SDS011;4673;53.458;9.940;2023-02-15T00:56:20;30.57;;;30.13;;
9270;SDS011;4673;53.458;9.940;2023-02-15T00:58:46;29.87;;;29.47;;
9270;SDS011;4673;53.458;9.940;2023-02-15T01:01:15;28.50;;;28.13;;
9270;SDS011;4673;53.458;9.940;2023-02-15T01:03:43;31.57;;;31.17;;
9270;SDS011;4673;53.458;9.940;2023-02-15T01:06:09;28.97;;;28.57;;
9270;SDS011;4673;53.458;9.940;2023-02-15T01:08:36;30.87;;;30.40;;
9270;SDS011;4673;53.458;9.940;2023-02-15T01:11:09;31.40;;;30.70;;
9270;SDS011;4673;53.458;9.940;2023-02-15T01:13:40;29.27;;;28.97;;
9270;SDS011;4673;53.458;9.940;2023-02-15T01:16:06;29.03;;;28.63;;
9270;SDS011;4673;53.458;9.940;2023-02-15T01:18:34;28.30;;;27.90;;
9270;SDS011;4673;53.458;9.940;2023-02-15T01:21:00;28.50;;;27.97;;
9270;SDS011;4673;53.458;9.940;2023-02-15T01:23:38;30.47;;;30.07;;
9270;SDS011;4673;53.458;9.940;2023-02-15T01:26:04;28.97;;;28.57;;
9270;SDS011;4673;53.458;9.940;2023-02-15T01:28:30;29.90;;;29.50;;
9270;SDS011;4673;53.458;9.940;2023-02-15T01:30:56;31.53;;;31.03;;
9270;SDS011;4673;53.458;9.940;2023-02-15T01:33:22;29.63;;;29.23;;
9270;SDS011;4673;53.458;9.940;2023-02-15T01:35:48;28.57;;;28.07;;
9270;SDS011;4673;53.458;9.940;2023-02-15T01:38:13;29.93;;;29.53;;
9270;SDS011;4673;53.458;9.940;2023-02-15T01:40:39;28.43;;;28.10;;
9270;SDS011;4673;53.458;9.940;2023-02-15T01:43:09;29.43;;;28.83;;
9270;SDS011;4673;53.458;9.940;2023-02-15T01:45:36;29.53;;;29.13;;
9270;SDS011;4673;53.458;9.940;2023-02-15T01:55:44;28.17;;;27.63;;
9270;SDS011;4673;53.458;9.940;2023-02-15T01:58:33;27.47;;;27.07;;
9270;SDS011;4673;53.458;9.940;2023-02-15T02:01:00;27.97;;;27.47;;
9270;SDS011;4673;53.458;9.940;2023-02-15T02:03:43;26.77;;;26.47;;
9270;SDS011;4673;53.458;9.940;2023-02-15T02:06:44;29.07;;;28.50;;
9270;SDS011;4673;53.458;9.940;2023-02-15T02:09:12;27.87;;;27.47;;
9270;SDS011;4673;53.458;9.940;2023-02-15T02:11:39;27.40;;;27.00;;
9270;SDS011;4673;53.458;9.940;2023-02-15T02:14:05;27.37;;;26.97;;
9270;SDS011;4673;53.458;9.940;2023-02-15T02:16:38;26.50;;;26.20;;
9270;SDS011;4673;53.458;9.940;2023-02-15T02:30:18;29.60;;;29.07;;
9270;SDS011;4673;53.458;9.940;2023-02-15T02:34:01;27.67;;;27.27;;
9270;SDS011;4673;53.458;9.940;2023-02-15T02:36:55;26.27;;;25.93;;
9270;SDS011;4673;53.458;9.940;2023-02-15T02:39:50;28.03;;;27.53;;
9270;SDS011;4673;53.458;9.940;2023-02-15T02:45:00;27.23;;;26.80;;
9270;SDS011;4673;53.458;9.940;2023-02-15T02:50:22;29.63;;;29.23;;
9270;SDS011;4673;53.458;9.940;2023-02-15T02:52:52;27.50;;;27.10;;
9270;SDS011;4673;53.458;9.940;2023-02-15T02:55:23;28.17;;;27.77;;
9270;SDS011;4673;53.458;9.940;2023-02-15T02:57:55;28.73;;;28.30;;
9270;SDS011;4673;53.458;9.940;2023-02-15T03:00:33;29.30;;;28.80;;
9270;SDS011;4673;53.458;9.940;2023-02-15T03:03:04;29.53;;;29.03;;
9270;SDS011;4673;53.458;9.940;2023-02-15T03:05:34;26.87;;;26.47;;
9270;SDS011;4673;53.458;9.940;2023-02-15T03:08:04;27.40;;;27.10;;
9270;SDS011;4673;53.458;9.940;2023-02-15T03:10:34;27.37;;;26.87;;
9270;SDS011;4673;53.458;9.940;2023-02-15T03:13:03;27.40;;;26.90;;
9270;SDS011;4673;53.458;9.940;2023-02-15T03:15:34;28.47;;;28.07;;
9270;SDS011;4673;53.458;9.940;2023-02-15T03:18:22;23.50;;;23.10;;
9270;SDS011;4673;53.458;9.940;2023-02-15T03:20:53;25.60;;;25.20;;
9270;SDS011;4673;53.458;9.940;2023-02-15T03:23:22;27.30;;;26.90;;
9270;SDS011;4673;53.458;9.940;2023-02-15T03:25:51;27.47;;;27.17;;
9270;SDS011;4673;53.458;9.940;2023-02-15T03:28:27;28.77;;;28.37;;
9270;SDS011;4673;53.458;9.940;2023-02-15T03:30:59;26.90;;;26.47;;
9270;SDS011;4673;53.458;9.940;2023-02-15T03:33:27;27.50;;;27.10;;
9270;SDS011;4673;53.458;9.940;2023-02-15T03:38:55;24.73;;;24.43;;
9270;SDS011;4673;53.458;9.940;2023-02-15T03:41:32;28.90;;;28.23;;
9270;SDS011;4673;53.458;9.940;2023-02-15T03:44:05;26.20;;;25.90;;
9270;SDS011;4673;53.458;9.940;2023-02-15T03:46:40;26.37;;;25.93;;
9270;SDS011;4673;53.458;9.940;2023-02-15T03:49:21;25.03;;;24.63;;
9270;SDS011;4673;53.458;9.940;2023-02-15T03:51:51;22.53;;;22.33;;
9270;SDS011;4673;53.458;9.940;2023-02-15T03:54:25;26.63;;;26.30;;
9270;SDS011;4673;53.458;9.940;2023-02-15T04:00:02;24.33;;;23.93;;
9270;SDS011;4673;53.458;9.940;2023-02-15T04:05:34;25.20;;;24.60;;
9270;SDS011;4673;53.458;9.940;2023-02-15T04:08:00;24.53;;;24.13;;
9270;SDS011;4673;53.458;9.940;2023-02-15T04:10:26;25.43;;;24.93;;
9270;SDS011;4673;53.458;9.940;2023-02-15T04:13:10;23.43;;;23.03;;
9270;SDS011;4673;53.458;9.940;2023-02-15T04:15:35;22.13;;;21.83;;
9270;SDS011;4673;53.458;9.940;2023-02-15T04:18:19;22.93;;;22.50;;
9270;SDS011;4673;53.458;9.940;2023-02-15T04:20:45;24.03;;;23.73;;
9270;SDS011;4673;53.458;9.940;2023-02-15T04:23:30;22.03;;;21.83;;
9270;SDS011;4673;53.458;9.940;2023-02-15T04:26:14;25.90;;;25.30;;
9270;SDS011;4673;53.458;9.940;2023-02-15T04:28:40;23.73;;;23.33;;
9270;SDS011;4673;53.458;9.940;2023-02-15T04:31:06;23.17;;;22.87;;
9270;SDS011;4673;53.458;9.940;2023-02-15T04:33:31;23.80;;;23.50;;
9270;SDS011;4673;53.458;9.940;2023-02-15T04:35:57;21.73;;;21.43;;
9270;SDS011;4673;53.458;9.940;2023-02-15T04:38:23;20.73;;;20.43;;
9270;SDS011;4673;53.458;9.940;2023-02-15T04:40:49;21.53;;;21.33;;
9270;SDS011;4673;53.458;9.940;2023-02-15T04:43:16;24.10;;;23.60;;
9270;SDS011;4673;53.458;9.940;2023-02-15T04:45:41;25.03;;;24.50;;
9270;SDS011;4673;53.458;9.940;2023-02-15T04:48:16;24.53;;;23.93;;
9270;SDS011;4673;53.458;9.940;2023-02-15T04:50:42;21.13;;;20.83;;
9270;SDS011;4673;53.458;9.940;2023-02-15T04:53:08;23.47;;;22.90;;
9270;SDS011;4673;53.458;9.940;2023-02-15T04:55:34;24.47;;;24.07;;
9270;SDS011;4673;53.458;9.940;2023-02-15T04:58:00;22.97;;;22.53;;
9270;SDS011;4673;53.458;9.940;2023-02-15T05:00:25;22.07;;;21.77;;
9270;SDS011;4673;53.458;9.940;2023-02-15T05:02:52;19.90;;;19.53;;
9270;SDS011;4673;53.458;9.940;2023-02-15T05:05:18;22.20;;;21.90;;
9270;SDS011;4673;53.458;9.940;2023-02-15T05:07:43;21.97;;;21.53;;
9270;SDS011;4673;53.458;9.940;2023-02-15T05:10:09;19.47;;;19.17;;
9270;SDS011;4673;53.458;9.940;2023-02-15T05:12:35;19.87;;;19.47;;
9270;SDS011;4673;53.458;9.940;2023-02-15T05:15:00;19.07;;;18.77;;
9270;SDS011;4673;53.458;9.940;2023-02-15T05:17:26;20.13;;;19.83;;
9270;SDS011;4673;53.458;9.940;2023-02-15T05:19:52;19.57;;;19.27;;
9270;SDS011;4673;53.458;9.940;2023-02-15T05:22:17;21.07;;;20.67;;
9270;SDS011;4673;53.458;9.940;2023-02-15T05:24:43;19.83;;;19.57;;
9270;SDS011;4673;53.458;9.940;2023-02-15T05:27:27;20.43;;;20.13;;
9270;SDS011;4673;53.458;9.940;2023-02-15T05:30:11;21.00;;;20.70;;
9270;SDS011;4673;53.458;9.940;2023-02-15T05:32:38;19.43;;;19.23;;
9270;SDS011;4673;53.458;9.940;2023-02-15T05:35:04;18.77;;;18.57;;
9270;SDS011;4673;53.458;9.940;2023-02-15T05:37:31;19.80;;;19.50;;
9270;SDS011;4673;53.458;9.940;2023-02-15T05:39:56;18.20;;;17.80;;
9270;SDS011;4673;53.458;9.940;2023-02-15T05:42:22;18.07;;;17.87;;
9270;SDS011;4673;53.458;9.940;2023-02-15T05:44:48;18.33;;;18.13;;
9270;SDS011;4673;53.458;9.940;2023-02-15T05:47:13;20.27;;;19.97;;
9270;SDS011;4673;53.458;9.940;2023-02-15T05:49:39;17.87;;;17.67;;
9270;SDS011;4673;53.458;9.940;2023-02-15T05:52:04;17.60;;;17.40;;
9270;SDS011;4673;53.458;9.940;2023-02-15T05:54:30;18.30;;;18.07;;
9270;SDS011;4673;53.458;9.940;2023-02-15T05:56:56;19.10;;;18.90;;
9270;SDS011;4673;53.458;9.940;2023-02-15T05:59:21;15.67;;;15.53;;
9270;SDS011;4673;53.458;9.940;2023-02-15T06:01:47;16.80;;;16.60;;
9270;SDS011;4673;53.458;9.940;2023-02-15T06:04:13;15.33;;;15.20;;
9270;SDS011;4673;53.458;9.940;2023-02-15T06:06:38;16.70;;;16.50;;
9270;SDS011;4673;53.458;9.940;2023-02-15T06:09:04;16.67;;;16.47;;
9270;SDS011;4673;53.458;9.940;2023-02-15T06:11:30;18.27;;;18.07;;
9270;SDS011;4673;53.458;9.940;2023-02-15T06:13:56;17.50;;;17.30;;
9270;SDS011;4673;53.458;9.940;2023-02-15T06:16:21;18.20;;;17.90;;
9270;SDS011;4673;53.458;9.940;2023-02-15T06:18:47;16.43;;;16.23;;
9270;SDS011;4673;53.458;9.940;2023-02-15T06:21:13;17.60;;;17.40;;
9270;SDS011;4673;53.458;9.940;2023-02-15T06:23:38;17.63;;;17.53;;
9270;SDS011;4673;53.458;9.940;2023-02-15T06:26:04;16.97;;;16.80;;
9270;SDS011;4673;53.458;9.940;2023-02-15T06:28:30;16.60;;;16.43;;
9270;SDS011;4673;53.458;9.940;2023-02-15T06:30:56;17.70;;;17.53;;
9270;SDS011;4673;53.458;9.940;2023-02-15T06:33:21;17.97;;;17.77;;
9270;SDS011;4673;53.458;9.940;2023-02-15T06:35:47;17.27;;;17.10;;
9270;SDS011;4673;53.458;9.940;2023-02-15T06:38:13;17.63;;;17.43;;
9270;SDS011;4673;53.458;9.940;2023-02-15T06:40:38;16.80;;;16.67;;
9270;SDS011;4673;53.458;9.940;2023-02-15T06:43:04;16.33;;;16.17;;
9270;SDS011;4673;53.458;9.940;2023-02-15T06:45:30;17.17;;;17.00;;
9270;SDS011;4673;53.458;9.940;2023-02-15T06:47:55;18.37;;;18.17;;
9270;SDS011;4673;53.458;9.940;2023-02-15T06:50:21;17.20;;;17.00;;
9270;SDS011;4673;53.458;9.940;2023-02-15T06:52:47;16.97;;;16.77;;
9270;SDS011;4673;53.458;9.940;2023-02-15T06:55:12;18.70;;;18.40;;
9270;SDS011;4673;53.458;9.940;2023-02-15T06:57:38;16.77;;;16.47;;
9270;SDS011;4673;53.458;9.940;2023-02-15T07:00:04;16.13;;;16.03;;
9270;SDS011;4673;53.458;9.940;2023-02-15T07:02:30;17.57;;;17.17;;
9270;SDS011;4673;53.458;9.940;2023-02-15T07:04:56;16.53;;;16.33;;
9270;SDS011;4673;53.458;9.940;2023-02-15T07:07:22;17.40;;;17.20;;
9270;SDS011;4673;53.458;9.940;2023-02-15T07:09:47;18.67;;;18.27;;
9270;SDS011;4673;53.458;9.940;2023-02-15T07:12:13;17.57;;;17.37;;
9270;SDS011;4673;53.458;9.940;2023-02-15T07:14:57;14.23;;;14.13;;
9270;SDS011;4673;53.458;9.940;2023-02-15T07:17:23;16.07;;;15.97;;
9270;SDS011;4673;53.458;9.940;2023-02-15T07:19:53;16.73;;;16.63;;
9270;SDS011;4673;53.458;9.940;2023-02-15T07:22:19;17.03;;;16.73;;
9270;SDS011;4673;53.458;9.940;2023-02-15T07:24:45;16.40;;;16.20;;
9270;SDS011;4673;53.458;9.940;2023-02-15T07:27:10;15.83;;;15.63;;
9270;SDS011;4673;53.458;9.940;2023-02-15T07:29:36;16.40;;;16.20;;
9270;SDS011;4673;53.458;9.940;2023-02-15T07:32:01;16.50;;;16.30;;
9270;SDS011;4673;53.458;9.940;2023-02-15T07:34:27;16.03;;;15.83;;
9270;SDS011;4673;53.458;9.940;2023-02-15T07:36:53;14.33;;;14.23;;
9270;SDS011;4673;53.458;9.940;2023-02-15T07:39:19;16.10;;;15.90;;
9270;SDS011;4673;53.458;9.940;2023-02-15T07:41:44;15.20;;;15.10;;
9270;SDS011;4673;53.458;9.940;2023-02-15T07:44:11;15.37;;;15.13;;
9270;SDS011;4673;53.458;9.940;2023-02-15T07:46:38;14.70;;;14.60;;
9270;SDS011;4673;53.458;9.940;2023-02-15T07:49:04;16.83;;;16.63;;
9270;SDS011;4673;53.458;9.940;2023-02-15T07:51:29;15.67;;;15.37;;
9270;SDS011;4673;53.458;9.940;2023-02-15T07:53:55;15.50;;;15.37;;
9270;SDS011;4673;53.458;9.940;2023-02-15T07:56:21;15.63;;;15.43;;
9270;SDS011;4673;53.458;9.940;2023-02-15T07:58:46;15.30;;;15.10;;
9270;SDS011;4673;53.458;9.940;2023-02-15T08:01:30;15.67;;;15.47;;
9270;SDS011;4673;53.458;9.940;2023-02-15T08:03:58;16.53;;;16.33;;
9270;SDS011;4673;53.458;9.940;2023-02-15T08:06:25;13.67;;;13.57;;
9270;SDS011;4673;53.458;9.940;2023-02-15T08:08:53;14.00;;;13.90;;
9270;SDS011;4673;53.458;9.940;2023-02-15T08:13:50;15.17;;;15.07;;
9270;SDS011;4673;53.458;9.940;2023-02-15T08:16:22;13.47;;;13.37;;
9270;SDS011;4673;53.458;9.940;2023-02-15T08:18:50;13.17;;;13.07;;
9270;SDS011;4673;53.458;9.940;2023-02-15T08:21:17;13.80;;;13.70;;
9270;SDS011;4673;53.458;9.940;2023-02-15T08:23:43;14.37;;;14.17;;
9270;SDS011;4673;53.458;9.940;2023-02-15T08:26:09;13.27;;;13.13;;
9270;SDS011;4673;53.458;9.940;2023-02-15T08:28:34;13.63;;;13.53;;
9270;SDS011;4673;53.458;9.940;2023-02-15T08:31:04;13.10;;;12.90;;
9270;SDS011;4673;53.458;9.940;2023-02-15T08:33:30;12.63;;;12.53;;
9270;SDS011;4673;53.458;9.940;2023-02-15T08:35:56;14.10;;;14.00;;
9270;SDS011;4673;53.458;9.940;2023-02-15T08:38:22;13.53;;;13.37;;
9270;SDS011;4673;53.458;9.940;2023-02-15T08:40:47;13.03;;;12.93;;
9270;SDS011;4673;53.458;9.940;2023-02-15T08:43:13;13.77;;;13.57;;
9270;SDS011;4673;53.458;9.940;2023-02-15T08:45:38;12.93;;;12.83;;
9270;SDS011;4673;53.458;9.940;2023-02-15T08:48:04;14.40;;;14.30;;
9270;SDS011;4673;53.458;9.940;2023-02-15T08:50:30;13.33;;;13.23;;
9270;SDS011;4673;53.458;9.940;2023-02-15T08:52:55;14.50;;;14.40;;
9270;SDS011;4673;53.458;9.940;2023-02-15T08:55:21;15.90;;;15.80;;
9270;SDS011;4673;53.458;9.940;2023-02-15T08:57:46;15.20;;;15.10;;
9270;SDS011;4673;53.458;9.940;2023-02-15T09:00:13;14.83;;;14.73;;
9270;SDS011;4673;53.458;9.940;2023-02-15T09:02:42;16.07;;;15.97;;
9270;SDS011;4673;53.458;9.940;2023-02-15T09:05:07;16.37;;;16.17;;
9270;SDS011;4673;53.458;9.940;2023-02-15T09:07:34;14.47;;;14.37;;
9270;SDS011;4673;53.458;9.940;2023-02-15T09:09:59;13.87;;;13.77;;
9270;SDS011;4673;53.458;9.940;2023-02-15T09:12:25;14.87;;;14.60;;
9270;SDS011;4673;53.458;9.940;2023-02-15T09:14:50;14.93;;;14.77;;
9270;SDS011;4673;53.458;9.940;2023-02-15T09:17:16;12.83;;;12.73;;
9270;SDS011;4673;53.458;9.940;2023-02-15T09:19:42;13.23;;;13.13;;
9270;SDS011;4673;53.458;9.940;2023-02-15T09:22:07;13.33;;;13.23;;
9270;SDS011;4673;53.458;9.940;2023-02-15T09:24:33;14.13;;;14.03;;
9270;SDS011;4673;53.458;9.940;2023-02-15T09:26:59;14.23;;;14.03;;
9270;SDS011;4673;53.458;9.940;2023-02-15T09:29:24;12.90;;;12.80;;
9270;SDS011;4673;53.458;9.940;2023-02-15T09:31:50;13.63;;;13.60;;
9270;SDS011;4673;53.458;9.940;2023-02-15T09:34:17;13.27;;;13.17;;
9270;SDS011;4673;53.458;9.940;2023-02-15T09:36:44;13.93;;;13.83;;
9270;SDS011;4673;53.458;9.940;2023-02-15T09:39:14;14.47;;;14.37;;
9270;SDS011;4673;53.458;9.940;2023-02-15T09:47:32;12.03;;;11.93;;
9270;SDS011;4673;53.458;9.940;2023-02-15T10:01:20;11.97;;;11.97;;
9270;SDS011;4673;53.458;9.940;2023-02-15T10:07:27;12.30;;;12.20;;
9270;SDS011;4673;53.458;9.940;2023-02-15T10:28:19;12.63;;;12.53;;
9270;SDS011;4673;53.458;9.940;2023-02-15T10:38:25;12.10;;;12.00;;
9270;SDS011;4673;53.458;9.940;2023-02-15T10:46:22;13.23;;;13.13;;
9270;SDS011;4673;53.458;9.940;2023-02-15T10:52:16;12.83;;;12.73;;
9270;SDS011;4673;53.458;9.940;2023-02-15T11:06:08;12.47;;;12.47;;
9270;SDS011;4673;53.458;9.940;2023-02-15T11:08:51;13.37;;;13.37;;
9270;SDS011;4673;53.458;9.940;2023-02-15T11:11:22;13.10;;;13.10;;
9270;SDS011;4673;53.458;9.940;2023-02-15T11:14:01;13.87;;;13.80;;
9270;SDS011;4673;53.458;9.940;2023-02-15T11:16:37;14.60;;;14.50;;
9270;SDS011;4673;53.458;9.940;2023-02-15T11:19:06;13.53;;;13.43;;
9270;SDS011;4673;53.458;9.940;2023-02-15T11:21:45;14.10;;;14.00;;
9270;SDS011;4673;53.458;9.940;2023-02-15T11:24:16;14.03;;;13.93;;
9270;SDS011;4673;53.458;9.940;2023-02-15T11:31:46;14.60;;;14.53;;
9270;SDS011;4673;53.458;9.940;2023-02-15T11:34:20;13.50;;;13.40;;
9270;SDS011;4673;53.458;9.940;2023-02-15T11:36:51;14.63;;;14.53;;
9270;SDS011;4673;53.458;9.940;2023-02-15T11:39:19;14.43;;;14.33;;
9270;SDS011;4673;53.458;9.940;2023-02-15T11:41:47;14.00;;;13.90;;
9270;SDS011;4673;53.458;9.940;2023-02-15T11:44:23;13.97;;;13.97;;
9270;SDS011;4673;53.458;9.940;2023-02-15T11:46:59;15.70;;;15.60;;
9270;SDS011;4673;53.458;9.940;2023-02-15T11:52:06;13.63;;;13.63;;
9270;SDS011;4673;53.458;9.940;2023-02-15T11:54:35;14.57;;;14.47;;
9270;SDS011;4673;53.458;9.940;2023-02-15T11:57:13;13.83;;;13.73;;
9270;SDS011;4673;53.458;9.940;2023-02-15T11:59:47;14.53;;;14.43;;
9270;SDS011;4673;53.458;9.940;2023-02-15T12:02:19;14.20;;;14.13;;
9270;SDS011;4673;53.458;9.940;2023-02-15T12:05:31;14.23;;;14.13;;
9270;SDS011;4673;53.458;9.940;2023-02-15T12:07:36;14.37;;;14.37;;
9270;SDS011;4673;53.458;9.940;2023-02-15T12:13:08;16.10;;;16.00;;
9270;SDS011;4673;53.458;9.940;2023-02-15T12:15:41;14.70;;;14.60;;
9270;SDS011;4673;53.458;9.940;2023-02-15T12:21:06;14.80;;;14.70;;
9270;SDS011;4673;53.458;9.940;2023-02-15T12:23:47;15.63;;;15.53;;
9270;SDS011;4673;53.458;9.940;2023-02-15T12:26:23;16.27;;;16.17;;
9270;SDS011;4673;53.458;9.940;2023-02-15T12:29:00;15.43;;;15.33;;
9270;SDS011;4673;53.458;9.940;2023-02-15T12:31:41;15.07;;;14.97;;
9270;SDS011;4673;53.458;9.940;2023-02-15T12:34:17;17.07;;;16.97;;
9270;SDS011;4673;53.458;9.940;2023-02-15T12:37:16;16.17;;;16.07;;
9270;SDS011;4673;53.458;9.940;2023-02-15T12:40:00;16.10;;;16.00;;
9270;SDS011;4673;53.458;9.940;2023-02-15T12:42:30;15.07;;;14.97;;
9270;SDS011;4673;53.458;9.940;2023-02-15T12:45:24;15.97;;;15.87;;
9270;SDS011;4673;53.458;9.940;2023-02-15T12:50:50;16.63;;;16.53;;
9270;SDS011;4673;53.458;9.940;2023-02-15T12:53:30;16.63;;;16.53;;
9270;SDS011;4673;53.458;9.940;2023-02-15T12:55:58;15.97;;;15.87;;
9270;SDS011;4673;53.458;9.940;2023-02-15T12:58:28;16.57;;;16.47;;
9270;SDS011;4673;53.458;9.940;2023-02-15T13:01:17;14.97;;;14.87;;
9270;SDS011;4673;53.458;9.940;2023-02-15T13:04:05;15.67;;;15.57;;
9270;SDS011;4673;53.458;9.940;2023-02-15T13:06:45;15.67;;;15.57;;
9270;SDS011;4673;53.458;9.940;2023-02-15T13:12:18;17.57;;;17.47;;
9270;SDS011;4673;53.458;9.940;2023-02-15T13:14:46;16.87;;;16.77;;
9270;SDS011;4673;53.458;9.940;2023-02-15T13:17:15;17.60;;;17.50;;
9270;SDS011;4673;53.458;9.940;2023-02-15T13:19:50;16.60;;;16.50;;
9270;SDS011;4673;53.458;9.940;2023-02-15T13:22:25;17.53;;;17.43;;
9270;SDS011;4673;53.458;9.940;2023-02-15T13:25:38;17.40;;;17.30;;
9270;SDS011;4673;53.458;9.940;2023-02-15T13:28:03;15.67;;;15.57;;
9270;SDS011;4673;53.458;9.940;2023-02-15T13:30:31;16.33;;;16.23;;
9270;SDS011;4673;53.458;9.940;2023-02-15T13:33:04;16.03;;;15.93;;
9270;SDS011;4673;53.458;9.940;2023-02-15T13:35:44;16.80;;;16.70;;
9270;SDS011;4673;53.458;9.940;2023-02-15T13:40:55;17.10;;;17.00;;
9270;SDS011;4673;53.458;9.940;2023-02-15T13:43:33;17.33;;;17.23;;
9270;SDS011;4673;53.458;9.940;2023-02-15T13:46:07;16.73;;;16.63;;
9270;SDS011;4673;53.458;9.940;2023-02-15T13:49:04;16.80;;;16.70;;
9270;SDS011;4673;53.458;9.940;2023-02-15T13:51:57;16.53;;;16.43;;
9270;SDS011;4673;53.458;9.940;2023-02-15T14:00:46;16.57;;;16.47;;
9270;SDS011;4673;53.458;9.940;2023-02-15T14:09:00;17.43;;;17.33;;
9270;SDS011;4673;53.458;9.940;2023-02-15T14:14:31;15.73;;;15.63;;
9270;SDS011;4673;53.458;9.940;2023-02-15T14:20:00;15.30;;;15.20;;
9270;SDS011;4673;53.458;9.940;2023-02-15T14:22:44;15.90;;;15.80;;
9270;SDS011;4673;53.458;9.940;2023-02-15T14:26:14;17.27;;;17.17;;
9270;SDS011;4673;53.458;9.940;2023-02-15T14:28:48;16.37;;;16.27;;
9270;SDS011;4673;53.458;9.940;2023-02-15T14:31:14;15.83;;;15.73;;
9270;SDS011;4673;53.458;9.940;2023-02-15T14:33:50;16.17;;;16.07;;
9270;SDS011;4673;53.458;9.940;2023-02-15T14:36:20;15.40;;;15.30;;
9270;SDS011;4673;53.458;9.940;2023-02-15T14:41:28;16.97;;;16.87;;
9270;SDS011;4673;53.458;9.940;2023-02-15T14:44:18;16.90;;;16.80;;
9270;SDS011;4673;53.458;9.940;2023-02-15T14:46:58;16.17;;;16.07;;
9270;SDS011;4673;53.458;9.940;2023-02-15T14:49:37;16.17;;;16.07;;
9270;SDS011;4673;53.458;9.940;2023-02-15T14:52:07;16.93;;;16.83;;
9270;SDS011;4673;53.458;9.940;2023-02-15T15:09:31;16.53;;;16.43;;
9270;SDS011;4673;53.458;9.940;2023-02-15T15:15:05;15.90;;;15.80;;
9270;SDS011;4673;53.458;9.940;2023-02-15T15:20:04;16.13;;;16.03;;
9270;SDS011;4673;53.458;9.940;2023-02-15T15:22:34;16.40;;;16.30;;
9270;SDS011;4673;53.458;9.940;2023-02-15T15:27:50;16.10;;;16.00;;
9270;SDS011;4673;53.458;9.940;2023-02-15T15:49:20;17.63;;;17.53;;
9270;SDS011;4673;53.458;9.940;2023-02-15T15:51:48;20.10;;;19.90;;
9270;SDS011;4673;53.458;9.940;2023-02-15T15:54:16;18.73;;;18.63;;
9270;SDS011;4673;53.458;9.940;2023-02-15T15:56:54;18.47;;;18.37;;
9270;SDS011;4673;53.458;9.940;2023-02-15T15:59:24;19.30;;;19.20;;
9270;SDS011;4673;53.458;9.940;2023-02-15T16:01:52;17.73;;;17.63;;
9270;SDS011;4673;53.458;9.940;2023-02-15T16:04:31;19.87;;;19.77;;
9270;SDS011;4673;53.458;9.940;2023-02-15T16:07:13;19.10;;;19.00;;
9270;SDS011;4673;53.458;9.940;2023-02-15T16:09:38;18.60;;;18.50;;
9270;SDS011;4673;53.458;9.940;2023-02-15T16:12:04;20.93;;;20.83;;
9270;SDS011;4673;53.458;9.940;2023-02-15T16:14:40;20.20;;;20.10;;
9270;SDS011;4673;53.458;9.940;2023-02-15T16:17:08;21.50;;;21.40;;
9270;SDS011;4673;53.458;9.940;2023-02-15T16:19:41;19.33;;;19.23;;
9270;SDS011;4673;53.458;9.940;2023-02-15T16:22:11;21.37;;;21.27;;
9270;SDS011;4673;53.458;9.940;2023-02-15T16:27:32;19.40;;;19.30;;
9270;SDS011;4673;53.458;9.940;2023-02-15T16:35:33;20.80;;;20.70;;
9270;SDS011;4673;53.458;9.940;2023-02-15T16:38:00;20.70;;;20.60;;
9270;SDS011;4673;53.458;9.940;2023-02-15T16:40:27;21.80;;;21.60;;
9270;SDS011;4673;53.458;9.940;2023-02-15T16:43:29;19.17;;;19.07;;
9270;SDS011;4673;53.458;9.940;2023-02-15T16:46:03;19.40;;;19.30;;
9270;SDS011;4673;53.458;9.940;2023-02-15T16:48:31;20.77;;;20.67;;
9270;SDS011;4673;53.458;9.940;2023-02-15T16:50:59;20.83;;;20.73;;
9270;SDS011;4673;53.458;9.940;2023-02-15T16:53:28;21.67;;;21.57;;
9270;SDS011;4673;53.458;9.940;2023-02-15T16:55:55;20.53;;;20.43;;
9270;SDS011;4673;53.458;9.940;2023-02-15T16:58:30;21.20;;;21.10;;
9270;SDS011;4673;53.458;9.940;2023-02-15T17:01:02;22.60;;;22.40;;
9270;SDS011;4673;53.458;9.940;2023-02-15T17:03:30;22.23;;;22.03;;
9270;SDS011;4673;53.458;9.940;2023-02-15T17:05:57;23.47;;;23.37;;
9270;SDS011;4673;53.458;9.940;2023-02-15T17:08:26;21.50;;;21.40;;
9270;SDS011;4673;53.458;9.940;2023-02-15T17:11:03;22.13;;;22.03;;
9270;SDS011;4673;53.458;9.940;2023-02-15T17:14:09;23.53;;;23.40;;
9270;SDS011;4673;53.458;9.940;2023-02-15T17:19:18;21.20;;;21.10;;
9270;SDS011;4673;53.458;9.940;2023-02-15T17:21:59;21.67;;;21.57;;
9270;SDS011;4673;53.458;9.940;2023-02-15T17:24:38;22.87;;;22.77;;
9270;SDS011;4673;53.458;9.940;2023-02-15T17:27:19;21.83;;;21.73;;
9270;SDS011;4673;53.458;9.940;2023-02-15T17:29:52;24.43;;;24.23;;
9270;SDS011;4673;53.458;9.940;2023-02-15T17:32:30;23.70;;;23.50;;
9270;SDS011;4673;53.458;9.940;2023-02-15T17:39:52;26.37;;;26.17;;
9270;SDS011;4673;53.458;9.940;2023-02-15T17:42:18;24.50;;;24.30;;
9270;SDS011;4673;53.458;9.940;2023-02-15T17:44:44;23.80;;;23.60;;
9270;SDS011;4673;53.458;9.940;2023-02-15T17:47:14;22.73;;;22.57;;
9270;SDS011;4673;53.458;9.940;2023-02-15T17:49:43;21.60;;;21.50;;
9270;SDS011;4673;53.458;9.940;2023-02-15T17:52:12;23.23;;;23.13;;
9270;SDS011;4673;53.458;9.940;2023-02-15T17:54:39;21.47;;;21.37;;
9270;SDS011;4673;53.458;9.940;2023-02-15T17:57:23;21.57;;;21.47;;
9270;SDS011;4673;53.458;9.940;2023-02-15T17:59:50;23.50;;;23.30;;
9270;SDS011;4673;53.458;9.940;2023-02-15T18:02:35;23.83;;;23.63;;
9270;SDS011;4673;53.458;9.940;2023-02-15T18:05:19;21.77;;;21.67;;
9270;SDS011;4673;53.458;9.940;2023-02-15T18:08:05;22.87;;;22.67;;
9270;SDS011;4673;53.458;9.940;2023-02-15T18:11:09;23.73;;;23.57;;
9270;SDS011;4673;53.458;9.940;2023-02-15T18:13:54;23.13;;;22.93;;
9270;SDS011;4673;53.458;9.940;2023-02-15T18:16:22;22.83;;;22.73;;
9270;SDS011;4673;53.458;9.940;2023-02-15T18:18:53;22.53;;;22.33;;
9270;SDS011;4673;53.458;9.940;2023-02-15T18:21:19;25.07;;;24.87;;
9270;SDS011;4673;53.458;9.940;2023-02-15T18:23:45;22.57;;;22.47;;
9270;SDS011;4673;53.458;9.940;2023-02-15T18:26:14;23.10;;;22.90;;
9270;SDS011;4673;53.458;9.940;2023-02-15T18:28:43;24.97;;;24.77;;
9270;SDS011;4673;53.458;9.940;2023-02-15T18:31:09;25.37;;;25.17;;
9270;SDS011;4673;53.458;9.940;2023-02-15T18:36:36;24.00;;;23.80;;
9270;SDS011;4673;53.458;9.940;2023-02-15T18:41:57;24.40;;;24.20;;